Time,TemperatureF,DewpointF,PressureIn,WindDirection,WindDirectionDegrees,WindSpeedMPH,WindSpeedGustMPH,Humidity,HourlyPrecipIn,Conditions,Clouds,dailyrainin,SoftwareType,DateUTC
2013-07-23 00:00:00,68.8,67.3,29.82,SE,144,0.0,1.0,95,0.13,,,0.00,Wunderground v.1.15,2013-07-23 04:00:00,
2013-07-23 00:05:00,68.8,67.3,29.82,SE,144,0.0,1.0,95,0.11,,,0.01,Wunderground v.1.15,2013-07-23 04:05:00,
2013-07-23 00:10:00,68.8,67.3,29.82,SE,144,0.0,1.0,95,0.51,,,0.04,Wunderground v.1.15,2013-07-23 04:10:00,
2013-07-23 00:15:00,68.8,67.3,29.82,SE,144,0.0,1.0,95,0.27,,,0.07,Wunderground v.1.15,2013-07-23 04:15:00,
2013-07-23 00:20:00,68.8,67.3,29.81,SE,144,0.0,1.0,95,0.43,,,0.10,Wunderground v.1.15,2013-07-23 04:20:00,
2013-07-23 00:25:00,68.8,67.3,29.81,SE,144,0.0,1.0,95,0.51,,,0.14,Wunderground v.1.15,2013-07-23 04:25:00,
2013-07-23 00:30:00,68.6,67.1,29.81,SE,144,0.0,1.0,95,0.38,,,0.19,Wunderground v.1.15,2013-07-23 04:30:00,
2013-07-23 00:35:00,68.6,67.4,29.81,SE,144,0.0,1.0,96,0.44,,,0.22,Wunderground v.1.15,2013-07-23 04:35:00,
2013-07-23 00:40:00,68.5,67.3,29.80,SE,144,0.0,1.0,96,0.38,,,0.25,Wunderground v.1.15,2013-07-23 04:40:00,
2013-07-23 00:45:00,68.5,67.3,29.79,SE,144,0.0,1.0,96,0.24,,,0.28,Wunderground v.1.15,2013-07-23 04:45:00,
2013-07-23 00:50:00,68.4,67.2,29.78,SE,144,0.0,1.0,96,0.34,,,0.31,Wunderground v.1.15,2013-07-23 04:50:00,
2013-07-23 00:55:00,68.3,67.1,29.78,SE,144,0.0,1.0,96,0.20,,,0.32,Wunderground v.1.15,2013-07-23 04:55:00,
2013-07-23 01:00:00,68.1,66.6,29.78,SE,144,0.0,1.0,95,0.10,,,0.33,Wunderground v.1.15,2013-07-23 05:00:00,
2013-07-23 01:05:00,68.0,66.5,29.78,SE,144,0.0,1.0,95,0.08,,,0.33,Wunderground v.1.15,2013-07-23 05:05:00,
2013-07-23 01:10:00,67.9,66.4,29.78,SE,144,0.0,1.0,95,0.05,,,0.33,Wunderground v.1.15,2013-07-23 05:10:00,
2013-07-23 01:15:00,67.9,66.7,29.77,SE,144,0.0,1.0,96,0.04,,,0.33,Wunderground v.1.15,2013-07-23 05:15:00,
2013-07-23 01:20:00,67.9,66.7,29.77,SE,144,0.0,1.0,96,0.00,,,0.33,Wunderground v.1.15,2013-07-23 05:20:00,
2013-07-23 01:25:00,67.8,66.6,29.77,SE,144,0.0,1.0,96,0.00,,,0.33,Wunderground v.1.15,2013-07-23 05:25:00,
2013-07-23 01:30:00,67.9,66.7,29.77,SE,144,0.0,1.0,96,0.00,,,0.34,Wunderground v.1.15,2013-07-23 05:30:00,
2013-07-23 01:35:00,67.9,66.7,29.76,SE,144,0.0,1.0,96,0.00,,,0.34,Wunderground v.1.15,2013-07-23 05:35:00,
2013-07-23 01:40:00,67.9,66.7,29.76,SE,144,0.0,1.0,96,0.00,,,0.34,Wunderground v.1.15,2013-07-23 05:40:00,
2013-07-23 01:45:00,67.9,66.7,29.76,SE,144,0.0,1.0,96,0.00,,,0.34,Wunderground v.1.15,2013-07-23 05:45:00,
2013-07-23 01:55:00,67.9,66.7,29.76,SE,144,0.0,1.0,96,0.00,,,0.34,Wunderground v.1.15,2013-07-23 05:55:00,
2013-07-23 02:00:00,67.9,66.7,29.75,SE,144,0.0,1.0,96,0.00,,,0.34,Wunderground v.1.15,2013-07-23 06:00:00,
2013-07-23 02:05:00,68.0,66.8,29.75,SE,144,0.0,1.0,96,0.00,,,0.34,Wunderground v.1.15,2013-07-23 06:05:00,
2013-07-23 02:10:00,68.0,66.8,29.74,SE,144,0.0,1.0,96,0.00,,,0.34,Wunderground v.1.15,2013-07-23 06:10:00,
2013-07-23 02:15:00,68.0,66.8,29.74,SE,144,0.0,1.0,96,0.00,,,0.34,Wunderground v.1.15,2013-07-23 06:15:00,
2013-07-23 02:20:00,68.0,66.8,29.74,SE,144,0.0,1.0,96,0.00,,,0.34,Wunderground v.1.15,2013-07-23 06:20:00,
2013-07-23 02:25:00,68.1,66.9,29.74,SE,144,0.0,1.0,96,0.00,,,0.34,Wunderground v.1.15,2013-07-23 06:25:00,
2013-07-23 02:30:00,68.1,66.9,29.75,SE,144,0.0,1.0,96,0.33,,,0.36,Wunderground v.1.15,2013-07-23 06:30:00,
2013-07-23 02:35:00,68.1,66.9,29.75,SE,144,0.0,1.0,96,2.33,,,0.46,Wunderground v.1.15,2013-07-23 06:35:00,
2013-07-23 02:40:00,68.1,66.9,29.74,SE,144,0.0,1.0,96,2.13,,,0.69,Wunderground v.1.15,2013-07-23 06:40:00,
2013-07-23 02:45:00,68.0,66.8,29.74,SE,146,0.0,1.0,96,2.21,,,0.83,Wunderground v.1.15,2013-07-23 06:45:00,
2013-07-23 02:50:00,68.0,66.8,29.73,SE,146,0.0,1.0,96,2.41,,,1.03,Wunderground v.1.15,2013-07-23 06:50:00,
2013-07-23 02:55:00,67.9,66.7,29.73,SE,146,0.0,1.0,96,1.13,,,1.18,Wunderground v.1.15,2013-07-23 06:55:00,
2013-07-23 03:00:00,67.9,66.7,29.73,SE,146,0.0,1.0,96,0.38,,,1.22,Wunderground v.1.15,2013-07-23 07:00:00,
2013-07-23 03:05:00,67.8,66.6,29.72,SE,146,0.0,1.0,96,0.97,,,1.25,Wunderground v.1.15,2013-07-23 07:05:00,
2013-07-23 03:10:00,67.9,66.7,29.72,SE,146,0.0,1.0,96,0.15,,,1.26,Wunderground v.1.15,2013-07-23 07:10:00,
2013-07-23 03:15:00,67.9,66.7,29.72,SE,146,0.0,1.0,96,0.06,,,1.26,Wunderground v.1.15,2013-07-23 07:15:00,
2013-07-23 03:25:00,68.0,66.8,29.72,SE,146,0.0,1.0,96,0.78,,,1.36,Wunderground v.1.15,2013-07-23 07:25:00,
2013-07-23 03:30:00,67.9,66.7,29.71,SE,146,0.0,1.0,96,0.69,,,1.41,Wunderground v.1.15,2013-07-23 07:30:00,
2013-07-23 03:35:00,67.9,66.7,29.71,SE,146,0.0,1.0,96,0.19,,,1.43,Wunderground v.1.15,2013-07-23 07:35:00,
2013-07-23 03:40:00,67.9,67.0,29.71,SE,146,0.0,1.0,97,0.07,,,1.43,Wunderground v.1.15,2013-07-23 07:40:00,
2013-07-23 03:45:00,67.9,67.0,29.71,SE,146,0.0,1.0,97,0.05,,,1.43,Wunderground v.1.15,2013-07-23 07:45:00,
2013-07-23 03:50:00,67.9,67.0,29.70,SE,146,0.0,1.0,97,0.00,,,1.43,Wunderground v.1.15,2013-07-23 07:50:00,
2013-07-23 03:55:00,67.9,67.0,29.70,SE,146,0.0,1.0,97,0.00,,,1.43,Wunderground v.1.15,2013-07-23 07:55:00,
2013-07-23 04:00:00,67.9,67.0,29.70,SE,146,0.0,1.0,97,0.00,,,1.43,Wunderground v.1.15,2013-07-23 08:00:00,
2013-07-23 04:05:00,67.9,67.0,29.70,SE,146,0.0,1.0,97,0.00,,,1.43,Wunderground v.1.15,2013-07-23 08:05:00,
2013-07-23 04:10:00,67.9,67.0,29.69,SE,146,0.0,1.0,97,0.00,,,1.43,Wunderground v.1.15,2013-07-23 08:10:00,
2013-07-23 04:15:00,67.9,67.0,29.69,SE,146,0.0,1.0,97,0.00,,,1.43,Wunderground v.1.15,2013-07-23 08:15:00,
2013-07-23 04:20:00,67.9,67.0,29.69,SE,146,0.0,1.0,97,0.00,,,1.43,Wunderground v.1.15,2013-07-23 08:20:00,
2013-07-23 04:25:00,68.0,67.1,29.69,SE,146,0.0,1.0,97,0.00,,,1.44,Wunderground v.1.15,2013-07-23 08:25:00,
2013-07-23 04:30:00,68.0,67.1,29.69,SE,146,0.0,0.0,97,0.00,,,1.44,Wunderground v.1.15,2013-07-23 08:30:00,
2013-07-23 04:35:00,68.1,67.2,29.68,SE,146,0.0,0.0,97,0.00,,,1.44,Wunderground v.1.15,2013-07-23 08:35:00,
2013-07-23 04:40:00,68.1,67.2,29.69,SE,146,0.0,0.0,97,0.00,,,1.44,Wunderground v.1.15,2013-07-23 08:40:00,
2013-07-23 04:45:00,68.1,67.2,29.69,SE,146,0.0,0.0,97,0.00,,,1.44,Wunderground v.1.15,2013-07-23 08:45:00,
2013-07-23 04:50:00,68.2,67.3,29.68,SE,146,0.0,0.0,97,0.00,,,1.44,Wunderground v.1.15,2013-07-23 08:50:00,
2013-07-23 04:55:00,68.2,67.3,29.68,SE,146,0.0,0.0,97,0.00,,,1.45,Wunderground v.1.15,2013-07-23 08:55:00,
2013-07-23 05:00:00,68.3,67.4,29.68,SE,146,0.0,0.0,97,0.00,,,1.45,Wunderground v.1.15,2013-07-23 09:00:00,
2013-07-23 05:05:00,68.3,67.4,29.68,SE,146,0.0,0.0,97,0.00,,,1.45,Wunderground v.1.15,2013-07-23 09:05:00,
2013-07-23 05:10:00,68.3,67.4,29.68,SE,146,0.0,0.0,97,0.04,,,1.46,Wunderground v.1.15,2013-07-23 09:10:00,
2013-07-23 05:15:00,68.4,67.5,29.68,SE,146,0.0,0.0,97,0.04,,,1.46,Wunderground v.1.15,2013-07-23 09:15:00,
2013-07-23 05:20:00,68.5,67.6,29.68,SE,146,0.0,0.0,97,0.04,,,1.46,Wunderground v.1.15,2013-07-23 09:20:00,
2013-07-23 05:25:00,68.5,67.6,29.68,SE,146,0.0,0.0,97,0.00,,,1.46,Wunderground v.1.15,2013-07-23 09:25:00,
2013-07-23 05:30:00,68.5,67.6,29.68,SE,146,0.0,0.0,97,0.00,,,1.46,Wunderground v.1.15,2013-07-23 09:30:00,
2013-07-23 05:35:00,68.5,67.6,29.68,SE,146,0.0,0.0,97,0.00,,,1.46,Wunderground v.1.15,2013-07-23 09:35:00,
2013-07-23 05:45:00,68.5,67.6,29.67,SE,146,0.0,0.0,97,0.00,,,1.46,Wunderground v.1.15,2013-07-23 09:45:00,
2013-07-23 05:50:00,68.5,67.6,29.67,SE,146,0.0,0.0,97,0.00,,,1.46,Wunderground v.1.15,2013-07-23 09:50:00,
2013-07-23 05:55:00,68.5,67.6,29.67,SE,146,0.0,0.0,97,0.00,,,1.46,Wunderground v.1.15,2013-07-23 09:55:00,
2013-07-23 06:00:00,68.6,67.7,29.67,SE,146,0.0,0.0,97,0.00,,,1.46,Wunderground v.1.15,2013-07-23 10:00:00,
2013-07-23 06:05:00,68.8,67.9,29.67,SE,146,0.0,0.0,97,0.00,,,1.46,Wunderground v.1.15,2013-07-23 10:05:00,
2013-07-23 06:10:00,68.9,68.0,29.67,SE,146,0.0,0.0,97,0.00,,,1.46,Wunderground v.1.15,2013-07-23 10:10:00,
2013-07-23 06:15:00,68.9,68.0,29.67,SE,146,0.0,0.0,97,0.00,,,1.46,Wunderground v.1.15,2013-07-23 10:15:00,
2013-07-23 06:20:00,69.0,68.1,29.67,SE,146,0.0,0.0,97,0.00,,,1.46,Wunderground v.1.15,2013-07-23 10:20:00,
2013-07-23 06:25:00,69.0,68.1,29.67,SSE,161,0.0,0.0,97,0.00,,,1.46,Wunderground v.1.15,2013-07-23 10:25:00,
2013-07-23 06:30:00,69.0,68.1,29.67,SSE,161,0.0,0.0,97,0.00,,,1.46,Wunderground v.1.15,2013-07-23 10:30:00,
2013-07-23 06:35:00,69.0,68.1,29.66,SSE,161,0.0,0.0,97,0.00,,,1.46,Wunderground v.1.15,2013-07-23 10:35:00,
2013-07-23 06:40:00,69.0,68.1,29.66,SSE,161,0.0,0.0,97,0.00,,,1.46,Wunderground v.1.15,2013-07-23 10:40:00,
2013-07-23 06:45:00,69.2,68.3,29.66,SSE,161,0.0,0.0,97,0.00,,,1.46,Wunderground v.1.15,2013-07-23 10:45:00,
2013-07-23 06:50:00,69.3,68.4,29.66,SSE,161,0.0,0.0,97,0.00,,,1.46,Wunderground v.1.15,2013-07-23 10:50:00,
2013-07-23 06:55:00,69.4,68.5,29.66,SSE,161,0.0,0.0,97,0.00,,,1.46,Wunderground v.1.15,2013-07-23 10:55:00,
2013-07-23 07:00:00,69.4,68.5,29.66,South,173,0.0,0.0,97,0.00,,,1.46,Wunderground v.1.15,2013-07-23 11:00:00,
2013-07-23 07:05:00,69.4,68.5,29.65,South,173,0.0,0.0,97,0.00,,,1.46,Wunderground v.1.15,2013-07-23 11:05:00,
2013-07-23 07:10:00,69.5,68.6,29.66,SW,233,0.0,0.0,97,0.00,,,1.46,Wunderground v.1.15,2013-07-23 11:10:00,
2013-07-23 07:15:00,69.6,68.7,29.65,SW,233,0.0,0.0,97,0.00,,,1.46,Wunderground v.1.15,2013-07-23 11:15:00,
2013-07-23 07:20:00,69.5,68.6,29.65,SW,233,0.0,0.0,97,0.00,,,1.46,Wunderground v.1.15,2013-07-23 11:20:00,
2013-07-23 07:25:00,69.3,68.4,29.65,SW,233,0.0,0.0,97,0.00,,,1.46,Wunderground v.1.15,2013-07-23 11:25:00,
2013-07-23 07:30:00,69.1,68.2,29.65,SW,233,0.0,0.0,97,0.00,,,1.46,Wunderground v.1.15,2013-07-23 11:30:00,
2013-07-23 07:35:00,69.0,68.1,29.65,SW,233,0.0,0.0,97,0.00,,,1.46,Wunderground v.1.15,2013-07-23 11:35:00,
2013-07-23 07:40:00,69.0,68.1,29.65,SW,233,0.0,0.0,97,0.00,,,1.46,Wunderground v.1.15,2013-07-23 11:40:00,
2013-07-23 07:45:00,69.0,68.1,29.64,SW,233,0.0,0.0,97,0.00,,,1.46,Wunderground v.1.15,2013-07-23 11:45:00,
2013-07-23 07:50:00,69.1,68.2,29.65,SW,233,0.0,0.0,97,0.00,,,1.46,Wunderground v.1.15,2013-07-23 11:50:00,
2013-07-23 07:55:00,69.2,68.3,29.64,SW,233,0.0,0.0,97,0.00,,,1.46,Wunderground v.1.15,2013-07-23 11:55:00,
2013-07-23 08:00:00,69.3,68.4,29.64,SW,233,0.0,0.0,97,0.00,,,1.46,Wunderground v.1.15,2013-07-23 12:00:00,
2013-07-23 08:05:00,69.4,68.5,29.64,SW,233,0.0,0.0,97,0.00,,,1.46,Wunderground v.1.15,2013-07-23 12:05:00,
2013-07-23 08:10:00,69.5,68.6,29.64,SW,233,0.0,0.0,97,0.00,,,1.46,Wunderground v.1.15,2013-07-23 12:10:00,
2013-07-23 08:15:00,69.6,68.7,29.64,WSW,245,0.0,0.0,97,0.00,,,1.46,Wunderground v.1.15,2013-07-23 12:15:00,
2013-07-23 08:20:00,69.8,68.9,29.64,WSW,245,0.0,0.0,97,0.00,,,1.46,Wunderground v.1.15,2013-07-23 12:20:00,
2013-07-23 08:25:00,69.8,68.9,29.63,WSW,245,0.0,0.0,97,0.00,,,1.46,Wunderground v.1.15,2013-07-23 12:25:00,
2013-07-23 08:30:00,69.9,69.0,29.64,WSW,245,0.0,0.0,97,0.00,,,1.46,Wunderground v.1.15,2013-07-23 12:30:00,
2013-07-23 08:35:00,70.1,69.2,29.64,WSW,245,0.0,0.0,97,0.00,,,1.46,Wunderground v.1.15,2013-07-23 12:35:00,
2013-07-23 08:40:00,70.2,69.3,29.64,WSW,245,0.0,0.0,97,0.00,,,1.46,Wunderground v.1.15,2013-07-23 12:40:00,
2013-07-23 08:45:00,70.3,69.4,29.64,WSW,245,0.0,0.0,97,0.00,,,1.46,Wunderground v.1.15,2013-07-23 12:45:00,
2013-07-23 08:50:00,70.5,69.6,29.64,WSW,245,0.0,0.0,97,0.00,,,1.46,Wunderground v.1.15,2013-07-23 12:50:00,
2013-07-23 08:55:00,70.6,69.7,29.64,WSW,245,0.0,0.0,97,0.31,,,1.49,Wunderground v.1.15,2013-07-23 12:55:00,
2013-07-23 09:00:00,70.6,69.7,29.64,WSW,245,0.0,0.0,97,0.15,,,1.51,Wunderground v.1.15,2013-07-23 13:00:00,
2013-07-23 09:05:00,70.5,69.6,29.63,WSW,245,0.0,0.0,97,0.06,,,1.51,Wunderground v.1.15,2013-07-23 13:05:00,
2013-07-23 09:10:00,70.3,69.4,29.63,WSW,253,0.0,0.0,97,0.06,,,1.52,Wunderground v.1.15,2013-07-23 13:10:00,
2013-07-23 09:15:00,70.2,69.3,29.63,WSW,253,0.0,0.0,97,0.06,,,1.52,Wunderground v.1.15,2013-07-23 13:15:00,
2013-07-23 09:20:00,70.0,69.1,29.63,WSW,254,0.0,0.0,97,0.04,,,1.52,Wunderground v.1.15,2013-07-23 13:20:00,
2013-07-23 09:25:00,69.9,69.0,29.62,WSW,254,0.0,0.0,97,0.00,,,1.52,Wunderground v.1.15,2013-07-23 13:25:00,
2013-07-23 09:30:00,69.9,69.0,29.62,WSW,254,0.0,0.0,97,0.00,,,1.52,Wunderground v.1.15,2013-07-23 13:30:00,
2013-07-23 09:35:00,70.0,69.1,29.61,WSW,254,0.0,0.0,97,0.00,,,1.52,Wunderground v.1.15,2013-07-23 13:35:00,
2013-07-23 09:40:00,70.2,69.3,29.62,WSW,254,0.0,0.0,97,0.00,,,1.52,Wunderground v.1.15,2013-07-23 13:40:00,
2013-07-23 09:45:00,70.3,69.4,29.62,WSW,254,0.0,0.0,97,0.00,,,1.52,Wunderground v.1.15,2013-07-23 13:45:00,
2013-07-23 09:50:00,70.5,69.6,29.62,WSW,254,0.0,0.0,97,0.00,,,1.52,Wunderground v.1.15,2013-07-23 13:50:00,
2013-07-23 09:55:00,71.8,70.9,29.62,WSW,254,0.0,0.0,97,0.00,,,1.53,Wunderground v.1.15,2013-07-23 13:55:00,
2013-07-23 10:00:00,71.5,70.6,29.62,NNW,340,0.0,0.0,97,0.00,,,1.53,Wunderground v.1.15,2013-07-23 14:00:00,
2013-07-23 10:05:00,71.7,70.8,29.61,NW,315,0.0,0.0,97,0.00,,,1.53,Wunderground v.1.15,2013-07-23 14:05:00,
2013-07-23 10:10:00,71.6,70.4,29.61,West,272,0.0,0.0,96,0.00,,,1.53,Wunderground v.1.15,2013-07-23 14:10:00,
2013-07-23 10:15:00,72.0,71.1,29.61,WNW,303,0.0,0.0,97,0.00,,,1.53,Wunderground v.1.15,2013-07-23 14:15:00,
2013-07-23 10:20:00,72.4,71.2,29.61,NW,321,0.0,1.0,96,0.00,,,1.53,Wunderground v.1.15,2013-07-23 14:20:00,
2013-07-23 10:25:00,72.7,71.5,29.61,WSW,256,1.0,1.0,96,0.00,,,1.53,Wunderground v.1.15,2013-07-23 14:25:00,
2013-07-23 10:30:00,73.0,71.5,29.61,WNW,298,2.0,2.0,95,0.00,,,1.53,Wunderground v.1.15,2013-07-23 14:30:00,
2013-07-23 10:35:00,73.3,71.5,29.61,WNW,286,1.0,2.0,94,0.00,,,1.53,Wunderground v.1.15,2013-07-23 14:35:00,
2013-07-23 10:40:00,73.0,70.2,29.61,West,275,1.0,2.0,91,0.00,,,1.53,Wunderground v.1.15,2013-07-23 14:40:00,
2013-07-23 10:45:00,73.1,70.3,29.61,NW,313,1.0,9.0,91,0.00,,,1.53,Wunderground v.1.15,2013-07-23 14:45:00,
2013-07-23 10:50:00,73.3,70.2,29.61,WNW,295,2.0,2.0,90,0.00,,,1.53,Wunderground v.1.15,2013-07-23 14:50:00,
2013-07-23 10:55:00,73.5,70.7,29.61,WNW,301,1.0,2.0,91,0.00,,,1.53,Wunderground v.1.15,2013-07-23 14:55:00,
2013-07-23 11:00:00,73.6,70.5,29.61,NW,325,1.0,1.0,90,0.00,,,1.53,Wunderground v.1.15,2013-07-23 15:00:00,
2013-07-23 11:05:00,73.9,70.8,29.61,NW,310,2.0,2.0,90,0.00,,,1.53,Wunderground v.1.15,2013-07-23 15:05:00,
2013-07-23 11:10:00,74.1,71.0,29.61,NNW,333,1.0,1.0,90,0.00,,,1.53,Wunderground v.1.15,2013-07-23 15:10:00,
2013-07-23 11:15:00,74.2,71.1,29.62,NW,315,1.0,1.0,90,0.00,,,1.53,Wunderground v.1.15,2013-07-23 15:15:00,
2013-07-23 11:20:00,74.5,71.4,29.62,NW,315,1.0,1.0,90,0.00,,,1.53,Wunderground v.1.15,2013-07-23 15:20:00,
2013-07-23 11:25:00,74.8,71.7,29.62,WNW,292,1.0,4.0,90,0.00,,,1.53,Wunderground v.1.15,2013-07-23 15:25:00,
2013-07-23 11:30:00,74.8,70.3,29.62,NW,309,1.0,1.0,86,0.00,,,1.53,Wunderground v.1.15,2013-07-23 15:30:00,
2013-07-23 11:35:00,75.0,70.9,29.62,NW,309,1.0,1.0,87,0.00,,,1.53,Wunderground v.1.15,2013-07-23 15:35:00,
2013-07-23 11:45:00,75.5,71.0,29.62,NNW,327,0.0,0.0,86,0.00,,,1.53,Wunderground v.1.15,2013-07-23 15:45:00,
2013-07-23 11:50:00,75.6,71.5,29.61,NNW,331,0.0,0.0,87,0.00,,,1.53,Wunderground v.1.15,2013-07-23 15:50:00,
2013-07-23 11:55:00,75.9,71.4,29.61,WNW,290,0.0,0.0,86,0.00,,,1.53,Wunderground v.1.15,2013-07-23 15:55:00,
2013-07-23 12:00:00,76.3,71.5,29.61,WNW,290,0.0,0.0,85,0.00,,,1.53,Wunderground v.1.15,2013-07-23 16:00:00,
2013-07-23 12:05:00,76.8,72.6,29.61,NW,309,0.0,2.0,87,0.00,,,1.53,Wunderground v.1.15,2013-07-23 16:05:00,
2013-07-23 12:10:00,76.8,70.9,29.61,NNW,329,1.0,1.0,82,0.00,,,1.53,Wunderground v.1.15,2013-07-23 16:10:00,
2013-07-23 12:15:00,76.7,70.4,29.61,WNW,296,1.0,1.0,81,0.00,,,1.53,Wunderground v.1.15,2013-07-23 16:15:00,
2013-07-23 12:20:00,76.9,71.0,29.61,NW,319,1.0,1.0,82,0.00,,,1.53,Wunderground v.1.15,2013-07-23 16:20:00,
2013-07-23 12:25:00,77.4,72.2,29.61,NW,314,1.0,1.0,84,0.00,,,1.53,Wunderground v.1.15,2013-07-23 16:25:00,
2013-07-23 12:30:00,77.6,70.9,29.61,WNW,300,1.0,5.0,80,0.00,,,1.53,Wunderground v.1.15,2013-07-23 16:30:00,
2013-07-23 12:35:00,77.6,70.6,29.61,WNW,291,1.0,5.0,79,0.00,,,1.53,Wunderground v.1.15,2013-07-23 16:35:00,
2013-07-23 12:40:00,77.6,70.6,29.60,WNW,286,1.0,1.0,79,0.00,,,1.53,Wunderground v.1.15,2013-07-23 16:40:00,
2013-07-23 12:45:00,77.7,70.7,29.61,WNW,294,0.0,1.0,79,0.00,,,1.53,Wunderground v.1.15,2013-07-23 16:45:00,
2013-07-23 12:50:00,77.9,71.6,29.60,WNW,294,0.0,0.0,81,0.00,,,1.53,Wunderground v.1.15,2013-07-23 16:50:00,
2013-07-23 12:55:00,78.0,71.3,29.60,WNW,294,0.0,0.0,80,0.00,,,1.53,Wunderground v.1.15,2013-07-23 16:55:00,
2013-07-23 13:00:00,78.5,71.8,29.59,WNW,294,0.0,0.0,80,0.00,,,1.53,Wunderground v.1.15,2013-07-23 17:00:00,
2013-07-23 13:05:00,79.3,72.6,29.60,West,269,0.0,0.0,80,0.00,,,1.53,Wunderground v.1.15,2013-07-23 17:05:00,
2013-07-23 13:10:00,79.6,71.8,29.59,NNW,335,0.0,0.0,77,0.00,,,1.53,Wunderground v.1.15,2013-07-23 17:10:00,
2013-07-23 13:15:00,80.1,72.6,29.59,NNW,332,0.0,0.0,78,0.00,,,1.53,Wunderground v.1.15,2013-07-23 17:15:00,
2013-07-23 13:20:00,80.6,72.3,29.59,North,10,0.0,0.0,76,0.00,,,1.53,Wunderground v.1.15,2013-07-23 17:20:00,
2013-07-23 13:25:00,80.6,72.7,29.59,NNW,333,0.0,1.0,77,0.00,,,1.53,Wunderground v.1.15,2013-07-23 17:25:00,
2013-07-23 13:30:00,80.4,72.9,29.58,North,355,0.0,0.0,78,0.00,,,1.53,Wunderground v.1.15,2013-07-23 17:30:00,
2013-07-23 13:35:00,80.8,74.4,29.58,North,350,0.0,0.0,81,0.00,,,1.53,Wunderground v.1.15,2013-07-23 17:35:00,
2013-07-23 13:40:00,81.5,74.4,29.58,WNW,302,0.0,0.0,79,0.00,,,1.53,Wunderground v.1.15,2013-07-23 17:40:00,
2013-07-23 13:45:00,81.7,73.0,29.58,NW,304,0.0,0.0,75,0.00,,,1.53,Wunderground v.1.15,2013-07-23 17:45:00,
2013-07-23 13:50:00,81.3,73.0,29.58,NW,309,0.0,0.0,76,0.00,,,1.53,Wunderground v.1.15,2013-07-23 17:50:00,
2013-07-23 13:55:00,81.2,72.9,29.58,North,9,0.0,0.0,76,0.00,,,1.53,Wunderground v.1.15,2013-07-23 17:55:00,
2013-07-23 14:00:00,81.5,72.8,29.58,North,11,0.0,0.0,75,0.00,,,1.53,Wunderground v.1.15,2013-07-23 18:00:00,
2013-07-23 14:05:00,81.1,71.6,29.58,NW,321,0.0,0.0,73,0.00,,,1.53,Wunderground v.1.15,2013-07-23 18:05:00,
2013-07-23 14:10:00,81.0,72.7,29.58,NW,321,0.0,0.0,76,0.00,,,1.53,Wunderground v.1.15,2013-07-23 18:10:00,
2013-07-23 14:15:00,81.6,74.1,29.58,NNW,329,0.0,0.0,78,0.00,,,1.53,Wunderground v.1.15,2013-07-23 18:15:00,
2013-07-23 14:25:00,82.6,71.8,29.58,NW,304,0.0,3.0,70,0.00,,,1.53,Wunderground v.1.15,2013-07-23 18:25:00,
2013-07-23 14:30:00,82.7,72.7,29.58,NW,304,0.0,1.0,72,0.00,,,1.53,Wunderground v.1.15,2013-07-23 18:30:00,
2013-07-23 14:45:00,83.7,73.3,29.58,WNW,298,1.0,5.0,71,0.00,,,1.53,Wunderground v.1.15,2013-07-23 18:45:00,
2013-07-23 14:50:00,83.8,73.0,29.58,WNW,298,0.0,0.0,70,0.00,,,1.53,Wunderground v.1.15,2013-07-23 18:50:00,
2013-07-23 14:55:00,83.3,72.1,29.58,WNW,293,0.0,4.0,69,0.00,,,1.53,Wunderground v.1.15,2013-07-23 18:55:00,
2013-07-23 15:00:00,82.8,71.6,29.58,NNW,332,1.0,1.0,69,0.00,,,1.53,Wunderground v.1.15,2013-07-23 19:00:00,
2013-07-23 15:05:00,82.9,72.9,29.58,NW,309,1.0,1.0,72,0.00,,,1.53,Wunderground v.1.15,2013-07-23 19:05:00,
2013-07-23 15:10:00,83.1,73.9,29.57,NW,315,0.0,2.0,74,0.00,,,1.53,Wunderground v.1.15,2013-07-23 19:10:00,
2013-07-23 15:15:00,83.5,74.3,29.57,NW,321,0.0,2.0,74,0.00,,,1.53,Wunderground v.1.15,2013-07-23 19:15:00,
2013-07-23 15:20:00,83.6,72.8,29.57,NNW,344,0.0,0.0,70,0.00,,,1.53,Wunderground v.1.15,2013-07-23 19:20:00,
2013-07-23 15:25:00,83.2,72.4,29.57,North,350,0.0,0.0,70,0.00,,,1.53,Wunderground v.1.15,2013-07-23 19:25:00,
2013-07-23 15:30:00,83.3,73.7,29.57,North,5,0.0,0.0,73,0.00,,,1.53,Wunderground v.1.15,2013-07-23 19:30:00,
2013-07-23 15:35:00,83.2,72.8,29.57,North,5,0.0,0.0,71,0.00,,,1.53,Wunderground v.1.15,2013-07-23 19:35:00,
2013-07-23 15:40:00,82.7,72.7,29.57,NNW,328,0.0,0.0,72,0.00,,,1.53,Wunderground v.1.15,2013-07-23 19:40:00,
2013-07-23 15:45:00,82.3,72.4,29.57,North,355,0.0,0.0,72,0.00,,,1.53,Wunderground v.1.15,2013-07-23 19:45:00,
2013-07-23 15:50:00,82.1,72.2,29.57,North,355,0.0,0.0,72,0.00,,,1.53,Wunderground v.1.15,2013-07-23 19:50:00,
2013-07-23 15:55:00,81.7,71.4,29.57,North,360,0.0,0.0,71,0.00,,,1.53,Wunderground v.1.15,2013-07-23 19:55:00,
2013-07-23 16:00:00,81.4,71.1,29.57,NW,308,0.0,0.0,71,0.00,,,1.53,Wunderground v.1.15,2013-07-23 20:00:00,
2013-07-23 16:05:00,81.7,72.6,29.57,WNW,284,0.0,0.0,74,0.00,,,1.53,Wunderground v.1.15,2013-07-23 20:05:00,
2013-07-23 16:10:00,82.1,73.0,29.57,NW,318,0.0,1.0,74,0.00,,,1.53,Wunderground v.1.15,2013-07-23 20:10:00,
2013-07-23 16:15:00,82.0,72.1,29.58,North,360,0.0,1.0,72,0.00,,,1.53,Wunderground v.1.15,2013-07-23 20:15:00,
2013-07-23 16:25:00,81.1,71.6,29.58,North,360,0.0,0.0,73,0.00,,,1.53,Wunderground v.1.15,2013-07-23 20:25:00,
2013-07-23 16:30:00,80.7,71.2,29.58,North,360,0.0,0.0,73,0.00,,,1.53,Wunderground v.1.15,2013-07-23 20:30:00,
2013-07-23 16:35:00,80.4,71.7,29.57,North,360,0.0,0.0,75,0.00,,,1.53,Wunderground v.1.15,2013-07-23 20:35:00,
2013-07-23 16:40:00,80.4,72.9,29.57,North,360,0.0,0.0,78,0.00,,,1.53,Wunderground v.1.15,2013-07-23 20:40:00,
2013-07-23 16:45:00,80.6,71.9,29.57,North,360,0.0,0.0,75,0.00,,,1.53,Wunderground v.1.15,2013-07-23 20:45:00,
2013-07-23 16:50:00,80.8,71.3,29.57,NW,304,0.0,1.0,73,0.00,,,1.53,Wunderground v.1.15,2013-07-23 20:50:00,
2013-07-23 16:55:00,80.9,71.0,29.57,WNW,292,1.0,1.0,72,0.00,,,1.53,Wunderground v.1.15,2013-07-23 20:55:00,
2013-07-23 17:00:00,80.9,73.0,29.58,WNW,292,0.0,0.0,77,0.00,,,1.53,Wunderground v.1.15,2013-07-23 21:00:00,
2013-07-23 17:10:00,79.5,72.0,29.58,SSE,147,0.0,0.0,78,0.00,,,1.53,Wunderground v.1.15,2013-07-23 21:10:00,
2013-07-23 17:15:00,78.7,71.3,29.58,SE,146,0.0,0.0,78,0.00,,,1.53,Wunderground v.1.15,2013-07-23 21:15:00,
2013-07-23 17:20:00,78.2,71.9,29.58,SE,146,0.0,0.0,81,0.00,,,1.53,Wunderground v.1.15,2013-07-23 21:20:00,
2013-07-23 17:25:00,77.6,72.0,29.58,SSE,147,0.0,0.0,83,0.00,,,1.53,Wunderground v.1.15,2013-07-23 21:25:00,
2013-07-23 17:35:00,77.0,72.1,29.58,SSE,147,0.0,0.0,85,0.00,,,1.53,Wunderground v.1.15,2013-07-23 21:35:00,
2013-07-23 17:40:00,77.3,72.4,29.58,SSE,147,0.0,0.0,85,0.00,,,1.53,Wunderground v.1.15,2013-07-23 21:40:00,
2013-07-23 17:45:00,77.4,71.8,29.57,SSE,150,0.0,0.0,83,0.00,,,1.53,Wunderground v.1.15,2013-07-23 21:45:00,
2013-07-23 17:50:00,77.3,70.6,29.57,SSE,150,0.0,0.0,80,0.00,,,1.53,Wunderground v.1.15,2013-07-23 21:50:00,
2013-07-23 17:55:00,77.4,72.5,29.57,SSE,150,0.0,0.0,85,0.00,,,1.53,Wunderground v.1.15,2013-07-23 21:55:00,
2013-07-23 18:00:00,77.4,72.9,29.57,SSE,150,0.0,0.0,86,0.00,,,1.53,Wunderground v.1.15,2013-07-23 22:00:00,
2013-07-23 18:10:00,77.1,72.6,29.57,SSE,157,0.0,0.0,86,0.00,,,1.53,Wunderground v.1.15,2013-07-23 22:10:00,
2013-07-23 18:20:00,76.6,72.4,29.57,SSE,157,0.0,0.0,87,0.00,,,1.53,Wunderground v.1.15,2013-07-23 22:20:00,
2013-07-23 18:30:00,76.6,71.7,29.57,SSE,157,0.0,0.0,85,0.00,,,1.53,Wunderground v.1.15,2013-07-23 22:30:00,
2013-07-23 18:35:00,76.6,72.1,29.57,SSE,157,0.0,0.0,86,0.00,,,1.53,Wunderground v.1.15,2013-07-23 22:35:00,
2013-07-23 18:40:00,76.6,71.7,29.57,South,178,0.0,0.0,85,0.00,,,1.53,Wunderground v.1.15,2013-07-23 22:40:00,
2013-07-23 18:45:00,76.6,72.4,29.57,South,178,0.0,0.0,87,0.00,,,1.53,Wunderground v.1.15,2013-07-23 22:45:00,
2013-07-23 18:55:00,76.4,72.2,29.57,South,178,0.0,0.0,87,0.00,,,1.53,Wunderground v.1.15,2013-07-23 22:55:00,
2013-07-23 19:00:00,76.4,72.6,29.58,South,178,0.0,0.0,88,0.00,,,1.53,Wunderground v.1.15,2013-07-23 23:00:00,
2013-07-23 19:05:00,76.5,72.7,29.58,South,178,0.0,0.0,88,0.00,,,1.53,Wunderground v.1.15,2013-07-23 23:05:00,
2013-07-23 19:10:00,76.5,72.7,29.58,South,178,0.0,0.0,88,0.00,,,1.53,Wunderground v.1.15,2013-07-23 23:10:00,
2013-07-23 19:15:00,76.6,72.8,29.58,South,178,0.0,0.0,88,0.00,,,1.53,Wunderground v.1.15,2013-07-23 23:15:00,
2013-07-23 19:20:00,76.7,72.9,29.58,South,174,0.0,0.0,88,0.00,,,1.53,Wunderground v.1.15,2013-07-23 23:20:00,
2013-07-23 19:25:00,76.7,72.9,29.58,SSW,201,0.0,0.0,88,0.00,,,1.53,Wunderground v.1.15,2013-07-23 23:25:00,
2013-07-23 19:30:00,76.6,72.8,29.59,SSW,201,0.0,0.0,88,0.00,,,1.53,Wunderground v.1.15,2013-07-23 23:30:00,
2013-07-23 19:35:00,76.5,72.7,29.59,SSW,201,0.0,0.0,88,0.00,,,1.53,Wunderground v.1.15,2013-07-23 23:35:00,
2013-07-23 19:40:00,76.4,72.6,29.59,SSW,201,0.0,0.0,88,0.00,,,1.53,Wunderground v.1.15,2013-07-23 23:40:00,
2013-07-23 19:45:00,76.3,72.5,29.59,SSW,201,0.0,0.0,88,0.00,,,1.53,Wunderground v.1.15,2013-07-23 23:45:00,
2013-07-23 19:50:00,76.2,72.7,29.60,SSW,201,0.0,0.0,89,0.00,,,1.53,Wunderground v.1.15,2013-07-23 23:50:00,
2013-07-23 20:00:00,76.0,72.5,29.60,SSW,201,0.0,0.0,89,0.00,,,1.53,Wunderground v.1.15,2013-07-24 00:00:00,
2013-07-23 20:05:00,75.8,72.3,29.60,SSW,200,0.0,0.0,89,0.00,,,1.53,Wunderground v.1.15,2013-07-24 00:05:00,
2013-07-23 20:10:00,75.6,72.1,29.61,SSW,201,0.0,0.0,89,0.00,,,1.53,Wunderground v.1.15,2013-07-24 00:10:00,
2013-07-23 20:15:00,75.3,71.8,29.61,SSW,201,0.0,0.0,89,0.00,,,1.53,Wunderground v.1.15,2013-07-24 00:15:00,
2013-07-23 20:20:00,75.1,71.6,29.61,SSW,200,0.0,0.0,89,0.00,,,1.53,Wunderground v.1.15,2013-07-24 00:20:00,
2013-07-23 20:25:00,74.9,71.8,29.61,SSW,200,0.0,0.0,90,0.00,,,1.53,Wunderground v.1.15,2013-07-24 00:25:00,
2013-07-23 20:30:00,74.6,71.5,29.61,SSW,200,0.0,0.0,90,0.00,,,1.53,Wunderground v.1.15,2013-07-24 00:30:00,
2013-07-23 20:35:00,74.3,71.2,29.60,SSW,200,0.0,0.0,90,0.00,,,1.53,Wunderground v.1.15,2013-07-24 00:35:00,
2013-07-23 20:40:00,74.0,70.9,29.61,SSW,200,0.0,0.0,90,0.00,,,1.53,Wunderground v.1.15,2013-07-24 00:40:00,
2013-07-23 20:45:00,73.7,70.9,29.61,SSW,201,0.0,0.0,91,0.00,,,1.53,Wunderground v.1.15,2013-07-24 00:45:00,
2013-07-23 20:50:00,73.5,70.7,29.61,SSW,200,0.0,0.0,91,0.00,,,1.53,Wunderground v.1.15,2013-07-24 00:50:00,
2013-07-23 20:55:00,73.2,70.4,29.61,SSW,200,0.0,0.0,91,0.00,,,1.53,Wunderground v.1.15,2013-07-24 00:55:00,
2013-07-23 21:00:00,72.9,70.4,29.61,SSW,200,0.0,0.0,92,0.00,,,1.53,Wunderground v.1.15,2013-07-24 01:00:00,
2013-07-23 21:05:00,72.8,70.3,29.61,SSW,201,0.0,0.0,92,0.00,,,1.53,Wunderground v.1.15,2013-07-24 01:05:00,
2013-07-23 21:10:00,72.5,70.0,29.61,SSW,200,0.0,0.0,92,0.00,,,1.53,Wunderground v.1.15,2013-07-24 01:10:00,
2013-07-23 21:15:00,72.4,69.9,29.61,SSW,201,0.0,0.0,92,0.00,,,1.53,Wunderground v.1.15,2013-07-24 01:15:00,
2013-07-23 21:20:00,72.2,70.1,29.61,SSW,200,0.0,0.0,93,0.00,,,1.53,Wunderground v.1.15,2013-07-24 01:20:00,
2013-07-23 21:25:00,72.1,70.0,29.61,SSW,201,0.0,0.0,93,0.00,,,1.53,Wunderground v.1.15,2013-07-24 01:25:00,
2013-07-23 21:30:00,71.9,69.8,29.61,SSW,201,0.0,0.0,93,0.00,,,1.53,Wunderground v.1.15,2013-07-24 01:30:00,
2013-07-23 21:35:00,71.8,69.7,29.61,SSW,200,0.0,0.0,93,0.00,,,1.53,Wunderground v.1.15,2013-07-24 01:35:00,
2013-07-23 21:45:00,71.5,69.4,29.62,SSW,200,0.0,0.0,93,0.00,,,1.53,Wunderground v.1.15,2013-07-24 01:45:00,
2013-07-23 21:50:00,71.3,69.2,29.61,SSW,200,0.0,0.0,93,0.00,,,1.53,Wunderground v.1.15,2013-07-24 01:50:00,
2013-07-23 21:55:00,71.2,69.1,29.61,SSW,200,0.0,0.0,93,0.00,,,1.53,Wunderground v.1.15,2013-07-24 01:55:00,
2013-07-23 22:00:00,71.0,69.2,29.61,SSW,200,0.0,0.0,94,0.00,,,1.53,Wunderground v.1.15,2013-07-24 02:00:00,
2013-07-23 22:05:00,70.8,69.0,29.61,SSW,201,0.0,0.0,94,0.00,,,1.53,Wunderground v.1.15,2013-07-24 02:05:00,
2013-07-23 22:10:00,70.7,68.9,29.61,SSW,201,0.0,0.0,94,0.00,,,1.53,Wunderground v.1.15,2013-07-24 02:10:00,
2013-07-23 22:15:00,70.7,68.9,29.61,SSW,200,0.0,0.0,94,0.00,,,1.53,Wunderground v.1.15,2013-07-24 02:15:00,
2013-07-23 22:20:00,70.6,69.1,29.61,SSW,200,0.0,0.0,95,0.00,,,1.53,Wunderground v.1.15,2013-07-24 02:20:00,
2013-07-23 22:25:00,70.9,69.4,29.61,SSW,200,0.0,0.0,95,0.00,,,1.53,Wunderground v.1.15,2013-07-24 02:25:00,
2013-07-23 22:30:00,70.9,69.4,29.61,SSW,200,0.0,0.0,95,0.00,,,1.53,Wunderground v.1.15,2013-07-24 02:30:00,
2013-07-23 22:35:00,70.8,69.3,29.61,SSW,200,0.0,0.0,95,0.00,,,1.53,Wunderground v.1.15,2013-07-24 02:35:00,
2013-07-23 22:40:00,70.7,69.2,29.61,SSW,200,0.0,0.0,95,0.00,,,1.53,Wunderground v.1.15,2013-07-24 02:40:00,
2013-07-23 22:45:00,70.5,69.0,29.61,SSW,201,0.0,0.0,95,0.00,,,1.53,Wunderground v.1.15,2013-07-24 02:45:00,
2013-07-23 22:55:00,70.2,68.7,29.61,SSW,200,0.0,0.0,95,0.00,,,1.53,Wunderground v.1.15,2013-07-24 02:55:00,
2013-07-23 23:00:00,70.0,68.5,29.62,SSW,200,0.0,0.0,95,0.00,,,1.53,Wunderground v.1.15,2013-07-24 03:00:00,
2013-07-23 23:05:00,69.7,68.2,29.62,SSW,200,0.0,0.0,95,0.00,,,1.53,Wunderground v.1.15,2013-07-24 03:05:00,
2013-07-23 23:10:00,69.6,68.1,29.62,SSW,200,0.0,0.0,95,0.00,,,1.53,Wunderground v.1.15,2013-07-24 03:10:00,
2013-07-23 23:15:00,69.4,67.9,29.62,SSW,200,0.0,0.0,95,0.00,,,1.53,Wunderground v.1.15,2013-07-24 03:15:00,
2013-07-23 23:20:00,69.2,67.7,29.62,SSW,200,0.0,0.0,95,0.00,,,1.53,Wunderground v.1.15,2013-07-24 03:20:00,
2013-07-23 23:25:00,69.1,67.6,29.62,SSW,200,0.0,0.0,95,0.00,,,1.53,Wunderground v.1.15,2013-07-24 03:25:00,
2013-07-23 23:30:00,69.0,67.5,29.62,SSW,200,0.0,0.0,95,0.00,,,1.53,Wunderground v.1.15,2013-07-24 03:30:00,
2013-07-23 23:35:00,68.8,67.3,29.63,SSW,200,0.0,0.0,95,0.00,,,1.53,Wunderground v.1.15,2013-07-24 03:35:00,
2013-07-23 23:40:00,68.6,67.1,29.63,SSW,200,0.0,0.0,95,0.00,,,1.53,Wunderground v.1.15,2013-07-24 03:40:00,
2013-07-23 23:45:00,68.4,66.9,29.63,SSW,200,0.0,0.0,95,0.00,,,1.53,Wunderground v.1.15,2013-07-24 03:45:00,
2013-07-23 23:50:00,68.2,66.7,29.63,SSW,200,0.0,0.0,95,0.00,,,1.53,Wunderground v.1.15,2013-07-24 03:50:00,
2013-07-23 23:55:00,68.0,66.5,29.63,SSW,201,0.0,0.0,95,0.00,,,1.53,Wunderground v.1.15,2013-07-24 03:55:00,